New Harbor, ME (Heathkit)

43° 52' 34"N, 69° 29' 40"W, Elevation 65 ft.
Eastern Time

Hourly observations for the last 72 hours

Date Time Temperature (°F) Humi-
dity

(%)
Wind
(mph)
Pressure Rain (in)
Air Dew 6 Hour 1 Hr 3 Hr 6 Hr Day
Alt
(in)
Sea
Level

(mb)
Max Min
16 19:00 61 54 77 S 10 G 25 29.50 999.0 1.03
16 18:00 60 53 79 SSE 7 G 15 29.50 999.0 1.03
16 17:00 61 53 76 SSE 8 G 23 29.51 999.4 1.03
16 16:00 62 53 73 S 8 G 17 29.52 999.7 1.03
16 15:00 61 54 79 SSE 5 G 17 29.53 1000.0 1.03
16 14:00 62 57 62 53 83 S 9 G 17 29.53 1000.0 0.21 1.03
16 13:00 61 57 86 S 6 G 16 29.56 1001.0 1.03
16 12:00 61 57 87 SSE 3 G 9 29.59 1002.1 1.03
16 11:00 60 56 88 SSE 4 G 9 29.61 1002.7 0.21 1.03
16 10:00 60 57 89 SSE 4 G 15 29.63 1003.4 0.01 1.03
16 09:00 59 56 90 S 8 G 16 29.63 1003.4 0.20 1.02
16 08:00 60 57 60 53 90 S 7 G 15 29.65 1004.1 0.76 0.80 0.82 0.82
16 07:00 60 57 89 SSE 6 G 18 29.64 1003.8 0.06
16 06:00 59 55 88 S 5 G 12 29.63 1003.4 0.04 0.06
16 05:00 60 56 87 S 6 G 11 29.64 1003.8 0.02 0.02
16 04:00 59 55 86 S 5 G 13 29.65 1004.1 0.02 0.02
16 03:00 59 54 84 S 3 G 10 29.66 1004.4 0.00
16 02:00 59 54 59 53 84 SSE 2 G 9 29.67 1004.8 0.00
16 01:00 59 54 82 SSE 2 G 4 29.69 1005.5 0.00
16 00:00 59 53 81 SSE 2 G 5 29.70 1005.8 0.01
15 23:00 59 53 81 E 1 G 2 29.69 1005.5 0.01
15 22:00 59 53 81 SSE 2 G 6 29.73 1006.8 0.01
15 21:00 59 54 82 S 0 G 2 29.74 1007.1 0.01
15 20:00 59 54 61 54 82 S 1 G 4 29.73 1006.8 0.01
15 19:00 59 54 82 S 1 G 4 29.74 1007.1 0.01
15 18:00 59 54 82 SSE 4 G 9 29.74 1007.1 0.01
15 17:00 59 53 79 ESE 1 G 2 29.73 1006.8 0.01
15 16:00 60 52 76 S 2 G 7 29.72 1006.5 0.01
15 15:00 60 52 75 SSE 1 G 4 29.73 1006.8 0.01
15 14:00 60 52 60 51 76 ESE 1 G 2 29.73 1006.8 0.01 0.01 0.01
15 13:00 59 52 78 ESE 1 G 2 29.74 1007.1 0.01
15 12:00 58 52 80 SE 1 G 2 29.76 1007.8 0.01 0.01
15 11:00 58 52 79 SSW 1 G 1 29.77 1008.2 0.00
15 10:00 58 51 77 SSE 1 G 2 29.77 1008.2 0.00
15 09:00 57 50 77 SE 1 G 3 29.77 1008.2 0.00
15 08:00 57 50 59 51 78 ESE 1 G 3 29.77 1008.2 0.00
15 07:00 57 50 78 ESE 2 G 4 29.75 1007.5 0.00
15 06:00 57 50 78 ESE 1 G 4 29.75 1007.5 0.00
15 05:00 58 51 77 ESE 2 G 3 29.73 1006.8 0.00
15 04:00 58 51 77 ESE 2 G 7 29.72 1006.5 0.00
15 03:00 58 51 77 E 2 G 4 29.72 1006.5 0.00
15 02:00 58 51 61 52 78 ESE 0 G 2 29.74 1007.1 0.00
15 01:00 58 53 82 ESE 2 G 2 29.72 1006.5 0.00
15 00:00 57 52 82 SE 0 G 1 29.70 1005.8 0.00
14 23:00 57 51 81 SW 0 G 2 29.72 1006.5 0.00
14 22:00 58 52 79 ESE 0 G 1 29.71 1006.1 0.00
14 21:00 60 53 77 SE 0 G 2 29.70 1005.8 0.00
14 20:00 61 53 75 57 76 E 0 G 2 29.70 1005.8 0.00
14 19:00 62 55 77 E 1 G 4 29.69 1005.5 0.00
14 18:00 64 57 78 E 1 G 2 29.66 1004.4 0.00
14 17:00 68 62 82 E 1 G 2 29.65 1004.1 0.00
14 16:00 74 68 82 E 3 G 9 29.64 1003.8 0.00
14 15:00 74 68 81 SE 4 G 15 29.63 1003.4 0.00
14 14:00 74 67 74 52 80 SE 5 G 10 29.64 1003.8 0.00
14 13:00 73 66 80 SSE 7 G 13 29.63 1003.4 0.00
14 12:00 72 66 81 S 4 G 12 29.67 1004.8 0.00
14 11:00 69 63 81 ESE 6 G 14 29.68 1005.1 0.00
14 10:00 65 58 77 SE 4 G 10 29.69 1005.5 0.00
14 09:00 60 54 80 S 4 G 7 29.70 1005.8 0.00
14 08:00 55 52 55 49 88 S 2 G 5 29.69 1005.5 0.00
14 07:00 53 50 88 S 1 G 2 29.67 1004.8 0.00
14 06:00 54 51 88 SSE 1 G 2 29.67 1004.8 0.00
14 05:00 53 49 87 S 1 G 4 29.65 1004.1 0.00
14 04:00 54 50 86 S 1 G 2 29.65 1004.1 0.00
14 03:00 54 50 86 SE 0 G 1 29.66 1004.4 0.00
14 02:00 55 50 60 48 84 SE 0 G 2 29.68 1005.1 0.00
14 01:00 55 50 82 SSE 0 G 1 29.67 1004.8 0.00
14 00:00 57 51 81 SSE 1 G 2 29.68 1005.1 0.00
13 23:00 59 53 79 WSW 1 G 5 29.70 1005.8 0.00
13 22:00 59 52 77 SW 1 G 4 29.72 1006.5 0.00
13 21:00 60 53 77 SW 2 G 7 29.72 1006.5 0.00
13 20:00 60 53 70 55 78 WSW 3 G 7 29.72 1006.5 0.00

Data generated by WxSolution Version 1.9.1.8, Build 2020.02.16.